Time;durP1;ratioP1;P1;durP2;ratioP2;P2;SDS_P1;SDS_P2;PMS_P1;PMS_P2;Temp;Humidity;BMP_temperature;BMP_pressure;BME280_temperature;BME280_humidity;BME280_pressure;Samples;Min_cycle;Max_cycle;Signal;HPM_P1;HPM_P2
2021/07/12 00:01:59;;;;;;;1.40;1.25;;;22.80;67.80;;;;;;5065562;28;20374;-26
2021/07/12 00:04:25;;;;;;;3.50;1.20;;;22.80;67.90;;;;;;5062868;28;20035;-27
2021/07/12 00:06:50;;;;;;;1.13;1.02;;;22.80;67.80;;;;;;5068308;28;20055;-29
2021/07/12 00:09:16;;;;;;;0.90;0.90;;;22.80;67.80;;;;;;5057753;28;20551;-31
2021/07/12 00:11:42;;;;;;;0.98;0.93;;;22.80;67.90;;;;;;5058872;28;20128;-26
2021/07/12 00:14:07;;;;;;;0.95;0.95;;;22.70;67.70;;;;;;5058778;28;20517;-30
2021/07/12 00:16:33;;;;;;;1.05;0.90;;;22.80;67.80;;;;;;5063079;28;20409;-29
2021/07/12 00:18:58;;;;;;;1.75;0.95;;;22.70;67.80;;;;;;5069736;28;20078;-27
2021/07/12 00:21:24;;;;;;;0.90;0.90;;;22.70;67.70;;;;;;5070005;28;20031;-31
2021/07/12 00:23:50;;;;;;;1.00;1.00;;;22.70;68.50;;;;;;5068598;28;20032;-28
2021/07/12 00:26:17;;;;;;;1.63;1.10;;;22.70;67.60;;;;;;5062068;28;20033;-29
2021/07/12 00:28:42;;;;;;;1.02;1.00;;;22.70;67.80;;;;;;5059134;28;20033;-30
2021/07/12 00:31:08;;;;;;;1.10;1.10;;;22.70;68.00;;;;;;5057694;28;20511;-29
2021/07/12 00:33:34;;;;;;;0.80;0.80;;;22.70;67.90;;;;;;5055451;28;20025;-27
2021/07/12 00:36:00;;;;;;;0.80;0.80;;;22.70;68.00;;;;;;5067249;28;20094;-29
2021/07/12 00:38:25;;;;;;;1.17;1.05;;;22.70;68.00;;;;;;5066455;28;20028;-26
2021/07/12 00:40:51;;;;;;;0.80;0.80;;;22.70;68.00;;;;;;5065421;28;20043;-29
2021/07/12 00:43:17;;;;;;;1.17;1.00;;;22.60;67.90;;;;;;5058565;28;20491;-30
2021/07/12 00:45:43;;;;;;;1.15;1.15;;;22.60;67.80;;;;;;5055125;28;20595;-27
2021/07/12 00:48:09;;;;;;;0.93;0.90;;;22.60;68.00;;;;;;5069454;28;20103;-31
2021/07/12 00:50:37;;;;;;;1.00;1.00;;;22.60;67.80;;;;;;5066901;28;20064;-28
2021/07/12 00:53:03;;;;;;;1.00;1.00;;;22.60;67.80;;;;;;5036343;28;20024;-26
2021/07/12 00:55:58;;;;;;;0.88;0.88;;;22.60;67.90;;;;;;5066438;28;20102;-29
2021/07/12 00:58:25;;;;;;;1.00;1.00;;;22.60;68.00;;;;;;5045285;28;20086;-25
2021/07/12 01:00:57;;;;;;;0.70;0.70;;;22.60;68.20;;;;;;5070807;28;20029;-25
2021/07/12 01:03:22;;;;;;;0.90;0.90;;;22.60;68.80;;;;;;5069177;28;20032;-29
2021/07/12 01:05:48;;;;;;;1.10;1.00;;;22.60;68.20;;;;;;5058377;28;20033;-29
2021/07/12 01:08:14;;;;;;;1.15;0.90;;;22.60;68.20;;;;;;5063132;28;20367;-28
2021/07/12 01:10:41;;;;;;;1.85;0.73;;;22.60;68.30;;;;;;5066293;28;20040;-28
2021/07/12 01:13:31;;;;;;;0.80;0.80;;;22.50;68.00;;;;;;5052386;28;20036;-28
2021/07/12 01:16:18;;;;;;;1.05;1.00;;;22.50;68.20;;;;;;5045154;28;20071;-27
2021/07/12 01:19:49;;;;;;;1.00;0.90;;;22.50;68.20;;;;;;5038412;28;20082;-37
2021/07/12 01:22:41;;;;;;;0.93;0.70;;;22.50;68.10;;;;;;4986242;28;20159;-29
2021/07/12 01:25:31;;;;;;;0.88;0.80;;;22.50;68.30;;;;;;4904176;29;20032;-29
2021/07/12 01:28:45;;;;;;;0.80;0.77;;;22.50;68.40;;;;;;4902099;29;20047;-33
2021/07/12 01:31:35;;;;;;;1.20;1.07;;;22.50;68.10;;;;;;4878572;29;20044;-27
2021/07/12 01:34:14;;;;;;;0.80;0.80;;;22.50;68.20;;;;;;4886525;29;20032;-29
2021/07/12 01:36:43;;;;;;;1.67;0.85;;;22.50;68.30;;;;;;4911629;29;20095;-35
2021/07/12 01:39:17;;;;;;;2.30;0.77;;;22.50;68.10;;;;;;4902584;29;20040;-27
2021/07/12 01:41:49;;;;;;;0.73;0.73;;;22.50;68.20;;;;;;4902442;29;20122;-33
2021/07/12 01:44:26;;;;;;;1.05;1.05;;;22.50;68.40;;;;;;4917716;29;20035;-29
2021/07/12 01:47:02;;;;;;;0.93;0.80;;;22.50;68.40;;;;;;4901469;29;20083;-26
2021/07/12 01:49:49;;;;;;;0.80;0.80;;;22.40;68.20;;;;;;4903443;29;20036;-27
2021/07/12 01:52:23;;;;;;;0.82;0.82;;;22.40;68.20;;;;;;4925232;28;20039;-28
2021/07/12 01:55:02;;;;;;;0.82;0.82;;;22.50;68.30;;;;;;4951348;28;20051;-37
2021/07/12 01:57:30;;;;;;;0.95;0.95;;;22.40;68.00;;;;;;4968129;28;20037;-28
2021/07/12 02:00:01;;;;;;;1.58;0.90;;;22.40;67.90;;;;;;4953037;28;20039;-25
2021/07/12 02:02:29;;;;;;;0.90;0.90;;;22.50;67.80;;;;;;5027976;28;20040;-32
2021/07/12 02:04:56;;;;;;;1.10;1.10;;;22.40;67.90;;;;;;5047466;28;20031;-31
2021/07/12 02:07:22;;;;;;;1.95;0.80;;;22.40;68.00;;;;;;5036036;28;20101;-29
2021/07/12 02:09:47;;;;;;;0.95;0.95;;;22.50;67.80;;;;;;5029349;28;20040;-30
2021/07/12 02:12:13;;;;;;;0.88;0.88;;;22.40;67.80;;;;;;5056127;28;20025;-27
2021/07/12 02:14:39;;;;;;;0.80;0.80;;;22.40;68.00;;;;;;5057509;28;20043;-27
2021/07/12 02:17:05;;;;;;;0.70;0.70;;;22.40;68.10;;;;;;5042149;28;20501;-31
2021/07/12 02:19:31;;;;;;;0.80;0.80;;;22.40;67.80;;;;;;5065432;28;20021;-27
2021/07/12 02:21:57;;;;;;;0.88;0.88;;;22.40;67.90;;;;;;5030399;28;20445;-32
2021/07/12 02:24:22;;;;;;;0.65;0.65;;;22.40;67.80;;;;;;5033151;28;20082;-26
2021/07/12 02:26:49;;;;;;;1.92;0.82;;;22.40;67.80;;;;;;5031525;28;20504;-32
2021/07/12 02:29:15;;;;;;;0.77;0.77;;;22.40;67.90;;;;;;5065119;28;20087;-25
2021/07/12 02:31:40;;;;;;;1.45;0.80;;;22.40;68.00;;;;;;5030701;28;20166;-32
2021/07/12 02:34:06;;;;;;;0.88;0.88;;;22.40;68.00;;;;;;5049005;28;20036;-28
2021/07/12 02:36:32;;;;;;;0.90;0.90;;;22.40;67.90;;;;;;5033565;28;20533;-27
2021/07/12 02:38:58;;;;;;;1.92;0.90;;;22.40;67.80;;;;;;5057394;28;20465;-26
2021/07/12 02:41:24;;;;;;;0.90;0.90;;;22.40;67.70;;;;;;5047331;28;20040;-25
2021/07/12 02:43:50;;;;;;;1.00;1.00;;;22.40;68.00;;;;;;5030305;28;20031;-29
2021/07/12 02:46:15;;;;;;;0.85;0.85;;;22.40;67.90;;;;;;5031836;28;20012;-28
2021/07/12 02:48:41;;;;;;;0.80;0.80;;;22.40;67.60;;;;;;5044264;28;20172;-29
2021/07/12 02:51:10;;;;;;;0.70;0.70;;;22.30;67.80;;;;;;5037755;28;20021;-26
2021/07/12 02:53:37;;;;;;;0.80;0.80;;;22.40;67.60;;;;;;5038633;28;20108;-27
2021/07/12 02:56:03;;;;;;;0.93;0.75;;;22.40;67.80;;;;;;5038325;28;20128;-26
2021/07/12 02:58:29;;;;;;;0.77;0.77;;;22.30;67.60;;;;;;5045252;28;20112;-27
2021/07/12 03:00:54;;;;;;;0.80;0.80;;;22.30;67.80;;;;;;5033442;28;20497;-28
2021/07/12 03:03:20;;;;;;;0.70;0.70;;;22.30;67.60;;;;;;5054445;28;20104;-27
2021/07/12 03:05:49;;;;;;;0.80;0.80;;;22.30;67.80;;;;;;5056074;28;20036;-28
2021/07/12 03:08:17;;;;;;;0.68;0.68;;;22.30;67.50;;;;;;5038605;28;20112;-31
2021/07/12 03:10:46;;;;;;;0.90;0.90;;;22.30;67.70;;;;;;5056299;28;20057;-27
2021/07/12 03:13:15;;;;;;;1.00;0.90;;;22.30;67.50;;;;;;5061389;28;20075;-27
2021/07/12 03:15:47;;;;;;;0.80;0.80;;;22.30;67.80;;;;;;5050352;28;20037;-29
2021/07/12 03:18:34;;;;;;;1.00;1.00;;;22.30;67.80;;;;;;5067181;28;20025;-28
2021/07/12 03:21:02;;;;;;;0.90;0.90;;;22.30;67.80;;;;;;5037703;28;20382;-30
2021/07/12 03:23:28;;;;;;;0.80;0.80;;;22.30;67.50;;;;;;5062680;28;20382;-31
2021/07/12 03:25:55;;;;;;;0.95;0.95;;;22.30;67.50;;;;;;5029961;28;20032;-32
2021/07/12 03:28:20;;;;;;;0.90;0.90;;;22.30;67.70;;;;;;5030346;28;20448;-27
2021/07/12 03:30:46;;;;;;;0.90;0.90;;;22.30;67.60;;;;;;5051296;28;20032;-28
2021/07/12 03:33:13;;;;;;;0.95;0.95;;;22.30;68.00;;;;;;5045206;28;20394;-30
2021/07/12 03:35:44;;;;;;;0.85;0.85;;;22.30;67.70;;;;;;5046385;28;20067;-26
2021/07/12 03:38:11;;;;;;;1.30;0.93;;;22.30;67.70;;;;;;5040935;28;20029;-30
2021/07/12 03:40:38;;;;;;;0.80;0.80;;;22.30;67.70;;;;;;5038692;28;20050;-30
2021/07/12 03:43:03;;;;;;;1.08;0.75;;;22.20;67.60;;;;;;5040429;28;20071;-30
2021/07/12 03:45:29;;;;;;;0.90;0.90;;;22.30;67.70;;;;;;5035406;28;20494;-27
2021/07/12 03:47:55;;;;;;;0.70;0.70;;;22.30;67.80;;;;;;5055059;28;20029;-27
2021/07/12 03:50:20;;;;;;;0.90;0.90;;;22.30;67.90;;;;;;5061448;28;20067;-30
2021/07/12 03:52:51;;;;;;;0.90;0.90;;;22.20;67.80;;;;;;5046322;28;20481;-29
2021/07/12 03:55:20;;;;;;;0.80;0.80;;;22.20;67.80;;;;;;5067254;28;20036;-32
2021/07/12 03:57:45;;;;;;;1.10;0.90;;;22.20;67.80;;;;;;5059107;28;20051;-30
2021/07/12 04:00:14;;;;;;;1.00;1.00;;;22.30;67.90;;;;;;5069348;28;20125;-31
2021/07/12 04:02:40;;;;;;;0.73;0.73;;;22.20;67.80;;;;;;5053614;28;20032;-28
2021/07/12 04:05:07;;;;;;;0.65;0.65;;;22.20;67.90;;;;;;5065998;28;20036;-29
2021/07/12 04:07:33;;;;;;;0.80;0.80;;;22.20;67.90;;;;;;5067588;28;20024;-28
2021/07/12 04:09:58;;;;;;;1.05;1.00;;;22.20;68.00;;;;;;5052722;28;20139;-25
2021/07/12 04:12:24;;;;;;;0.70;0.70;;;22.20;68.00;;;;;;5062781;28;20120;-29
2021/07/12 04:14:52;;;;;;;0.90;0.90;;;22.30;68.10;;;;;;5068749;28;20041;-27
2021/07/12 04:17:18;;;;;;;0.88;0.88;;;22.20;68.00;;;;;;5061162;28;20132;-26
2021/07/12 04:19:44;;;;;;;1.00;1.00;;;22.30;68.10;;;;;;5060106;28;20119;-29
2021/07/12 04:22:09;;;;;;;1.05;0.90;;;22.20;68.30;;;;;;5059612;28;20040;-31
2021/07/12 04:24:35;;;;;;;0.70;0.70;;;22.20;68.20;;;;;;5055720;28;20037;-29
2021/07/12 04:27:00;;;;;;;0.90;0.90;;;22.20;68.10;;;;;;5063261;28;20070;-34
2021/07/12 04:29:26;;;;;;;0.80;0.80;;;22.20;68.40;;;;;;5040765;28;20048;-29
2021/07/12 04:31:52;;;;;;;1.00;1.00;;;22.20;68.20;;;;;;5059993;28;20060;-32
2021/07/12 04:34:17;;;;;;;1.08;1.05;;;22.20;68.20;;;;;;5058410;28;20489;-33
2021/07/12 04:36:43;;;;;;;1.00;1.00;;;22.20;68.20;;;;;;5054334;28;20107;-31
2021/07/12 04:39:08;;;;;;;0.70;0.70;;;22.20;68.00;;;;;;5058175;28;20394;-28
2021/07/12 04:41:34;;;;;;;1.45;1.13;;;22.20;68.10;;;;;;5063048;28;20035;-30
2021/07/12 04:43:59;;;;;;;0.82;0.82;;;22.20;68.00;;;;;;5061255;28;20078;-29
2021/07/12 04:46:25;;;;;;;0.98;0.98;;;22.20;68.00;;;;;;5063949;28;20100;-32
2021/07/12 04:48:51;;;;;;;0.95;0.95;;;22.20;68.20;;;;;;5071257;28;20505;-29
2021/07/12 04:51:16;;;;;;;1.23;1.20;;;22.20;68.20;;;;;;5069327;28;20029;-30
2021/07/12 04:53:42;;;;;;;1.00;1.00;;;22.20;68.20;;;;;;5066979;28;20123;-26
2021/07/12 04:56:08;;;;;;;3.03;1.20;;;22.20;68.30;;;;;;5066233;28;20051;-25
2021/07/12 04:58:37;;;;;;;1.38;1.27;;;22.20;68.30;;;;;;5067603;28;20042;-31
2021/07/12 05:01:04;;;;;;;1.15;1.05;;;22.20;68.20;;;;;;5055787;28;20024;-30
2021/07/12 05:03:32;;;;;;;0.90;0.90;;;22.20;68.40;;;;;;5056183;28;20108;-28
2021/07/12 05:05:58;;;;;;;1.10;1.10;;;22.20;68.40;;;;;;5053598;28;20055;-26
2021/07/12 05:08:23;;;;;;;1.13;1.08;;;22.20;68.40;;;;;;5065559;28;20469;-26
2021/07/12 05:10:49;;;;;;;1.23;1.13;;;22.20;68.40;;;;;;5066585;28;20114;-28
2021/07/12 05:13:15;;;;;;;1.23;1.23;;;22.20;68.50;;;;;;5041265;28;20538;-27
2021/07/12 05:15:41;;;;;;;1.20;1.10;;;22.20;68.50;;;;;;5052960;28;20043;-31
2021/07/12 05:18:06;;;;;;;1.20;1.10;;;22.20;68.60;;;;;;5040003;28;20042;-27
2021/07/12 05:20:32;;;;;;;0.98;0.98;;;22.20;68.80;;;;;;5047655;28;20032;-30
2021/07/12 05:22:59;;;;;;;0.95;0.95;;;22.20;68.80;;;;;;5044331;28;20112;-28
2021/07/12 05:25:26;;;;;;;1.70;1.20;;;22.20;68.80;;;;;;5065959;28;20033;-29
2021/07/12 05:27:51;;;;;;;0.70;0.70;;;22.20;68.80;;;;;;5070496;28;20509;-29
2021/07/12 05:30:17;;;;;;;1.00;1.00;;;22.20;68.80;;;;;;5066821;28;20020;-31
2021/07/12 05:32:43;;;;;;;0.80;0.80;;;22.10;68.90;;;;;;5057655;28;20577;-31
2021/07/12 05:35:09;;;;;;;1.52;1.10;;;22.20;69.00;;;;;;5063935;28;20044;-28
2021/07/12 05:37:34;;;;;;;1.10;1.00;;;22.20;69.10;;;;;;5066468;28;20023;-28
2021/07/12 05:40:00;;;;;;;0.90;0.90;;;22.20;69.10;;;;;;5056408;28;20039;-33
2021/07/12 05:42:26;;;;;;;0.80;0.80;;;22.20;69.20;;;;;;5064485;28;20489;-29
2021/07/12 05:44:51;;;;;;;1.13;1.10;;;22.20;69.20;;;;;;5065419;28;20049;-25
2021/07/12 05:47:17;;;;;;;0.70;0.70;;;22.20;69.20;;;;;;5065480;28;20025;-29
2021/07/12 05:49:43;;;;;;;0.90;0.90;;;22.20;69.30;;;;;;5060729;28;20063;-27
2021/07/12 05:52:08;;;;;;;1.30;1.00;;;22.20;69.40;;;;;;5056108;28;20027;-32
2021/07/12 05:54:34;;;;;;;1.67;1.00;;;22.10;69.30;;;;;;5053925;28;20049;-30
2021/07/12 05:57:00;;;;;;;1.05;1.05;;;22.10;69.30;;;;;;5056682;28;20036;-32
2021/07/12 05:59:25;;;;;;;1.10;1.10;;;22.20;70.30;;;;;;5062159;28;20051;-37
2021/07/12 06:01:51;;;;;;;1.10;1.10;;;22.10;69.50;;;;;;5062467;28;20027;-33
2021/07/12 06:04:16;;;;;;;0.95;0.95;;;22.10;69.50;;;;;;5065330;28;20546;-28
2021/07/12 06:06:42;;;;;;;0.90;0.90;;;22.10;69.50;;;;;;5069446;28;20025;-34
2021/07/12 06:09:07;;;;;;;1.17;1.17;;;22.20;69.60;;;;;;5067316;28;20056;-30
2021/07/12 06:11:33;;;;;;;0.95;0.95;;;22.20;69.70;;;;;;5064966;28;20056;-32
2021/07/12 06:13:59;;;;;;;1.30;1.20;;;22.10;69.60;;;;;;5063218;28;20051;-29
2021/07/12 06:16:25;;;;;;;1.67;1.30;;;22.20;69.70;;;;;;5053743;28;20021;-27
2021/07/12 06:18:51;;;;;;;1.23;1.10;;;22.10;69.90;;;;;;5056706;28;20032;-33
2021/07/12 06:21:16;;;;;;;1.30;1.25;;;22.10;69.80;;;;;;5055244;28;20025;-30
2021/07/12 06:23:42;;;;;;;1.00;1.00;;;22.20;69.90;;;;;;5065242;28;20039;-28
2021/07/12 06:26:07;;;;;;;1.02;1.02;;;22.20;70.00;;;;;;5064615;28;20034;-33
2021/07/12 06:28:33;;;;;;;1.00;0.90;;;22.20;70.00;;;;;;5063047;28;20031;-31
2021/07/12 06:30:59;;;;;;;0.80;0.80;;;22.10;70.30;;;;;;5036433;28;20029;-31
2021/07/12 06:33:29;;;;;;;1.25;0.70;;;22.10;70.50;;;;;;5053819;28;20721;-36
2021/07/12 06:35:57;;;;;;;0.80;0.80;;;22.10;70.10;;;;;;5035828;28;20049;-33
2021/07/12 06:38:23;;;;;;;2.15;0.73;;;22.20;69.90;;;;;;5058891;28;20075;-32
2021/07/12 06:40:49;;;;;;;0.85;0.85;;;22.20;70.00;;;;;;5057497;28;20036;-35
2021/07/12 06:43:14;;;;;;;0.60;0.60;;;22.20;70.00;;;;;;5065915;28;20444;-35
2021/07/12 06:45:40;;;;;;;0.82;0.80;;;22.20;70.00;;;;;;5062682;28;20052;-33
2021/07/12 06:48:06;;;;;;;1.05;0.80;;;22.20;70.00;;;;;;5068317;28;20480;-27
2021/07/12 06:50:44;;;;;;;0.80;0.80;;;22.20;69.80;;;;;;5047225;28;20035;-29
2021/07/12 06:53:10;;;;;;;2.30;0.80;;;22.10;69.70;;;;;;5046136;28;20416;-35
2021/07/12 06:55:35;;;;;;;2.10;1.00;;;22.10;69.50;;;;;;5056324;28;20036;-32
2021/07/12 06:58:04;;;;;;;0.55;0.55;;;22.10;69.50;;;;;;5067436;28;20023;-33
2021/07/12 07:00:32;;;;;;;1.00;1.00;;;22.10;69.60;;;;;;5060974;28;20032;-32
2021/07/12 07:02:58;;;;;;;1.30;0.60;;;22.10;69.60;;;;;;5065515;28;20451;-32
2021/07/12 07:05:26;;;;;;;1.02;0.93;;;22.20;69.40;;;;;;5057855;28;20412;-34
2021/07/12 07:07:52;;;;;;;0.65;0.65;;;22.20;69.50;;;;;;5056531;28;20040;-29
2021/07/12 07:10:17;;;;;;;1.10;1.10;;;22.20;69.40;;;;;;5057269;28;20041;-32
2021/07/12 07:12:43;;;;;;;0.70;0.70;;;22.10;69.50;;;;;;5069000;28;20021;-27
2021/07/12 07:15:09;;;;;;;0.60;0.60;;;22.10;69.60;;;;;;5065980;28;20048;-30
2021/07/12 07:17:35;;;;;;;0.60;0.60;;;22.10;69.50;;;;;;5055563;28;20025;-35
2021/07/12 07:20:01;;;;;;;0.60;0.60;;;22.10;69.60;;;;;;5040629;28;20025;-26
2021/07/12 07:22:26;;;;;;;0.50;0.50;;;22.10;69.50;;;;;;5063394;28;20063;-35
2021/07/12 07:24:52;;;;;;;0.80;0.80;;;22.10;69.50;;;;;;5068423;28;20044;-32
2021/07/12 07:27:18;;;;;;;0.57;0.57;;;22.10;69.60;;;;;;5058498;28;20682;-33
2021/07/12 07:29:44;;;;;;;0.63;0.63;;;22.20;69.70;;;;;;5060068;28;20130;-31
2021/07/12 07:32:10;;;;;;;0.60;0.60;;;22.10;70.10;;;;;;5060496;28;20107;-33
2021/07/12 07:34:35;;;;;;;0.60;0.60;;;22.10;69.80;;;;;;5066935;28;20046;-31
2021/07/12 07:37:01;;;;;;;0.70;0.70;;;22.20;69.60;;;;;;5057408;28;20545;-31
2021/07/12 07:39:27;;;;;;;0.52;0.52;;;22.10;69.50;;;;;;5057444;28;20021;-32
2021/07/12 07:41:53;;;;;;;0.70;0.70;;;22.20;69.60;;;;;;5065896;28;20541;-31
2021/07/12 07:44:19;;;;;;;0.80;0.80;;;22.30;69.70;;;;;;5064779;28;20485;-28
2021/07/12 07:46:45;;;;;;;0.63;0.63;;;22.30;70.10;;;;;;5063281;28;20107;-34
2021/07/12 07:49:10;;;;;;;0.98;0.85;;;22.30;70.10;;;;;;5058522;28;20128;-31
2021/07/12 07:51:37;;;;;;;0.95;0.80;;;22.30;70.70;;;;;;5062099;28;20052;-32
2021/07/12 07:54:04;;;;;;;3.35;0.98;;;22.30;71.00;;;;;;5073033;28;20490;-33
2021/07/12 07:56:30;;;;;;;0.93;0.93;;;22.30;72.30;;;;;;5060831;28;20060;-29
2021/07/12 07:58:55;;;;;;;2.22;1.10;;;22.30;72.60;;;;;;5064975;28;20446;-34
2021/07/12 08:01:21;;;;;;;1.13;1.02;;;22.30;72.80;;;;;;5062746;28;20030;-32
2021/07/12 08:03:47;;;;;;;1.27;1.17;;;22.30;72.50;;;;;;5056261;28;20025;-31
2021/07/12 08:06:12;;;;;;;0.93;0.93;;;22.30;72.70;;;;;;5063157;28;20051;-28
2021/07/12 08:08:38;;;;;;;0.85;0.80;;;22.30;72.60;;;;;;5067299;28;20047;-33
2021/07/12 08:11:03;;;;;;;1.73;1.10;;;22.30;72.20;;;;;;5061564;28;20041;-36
2021/07/12 08:13:29;;;;;;;0.90;0.90;;;22.30;71.70;;;;;;5070770;28;20503;-29
2021/07/12 08:15:55;;;;;;;1.20;1.10;;;22.50;71.30;;;;;;5072197;28;20191;-34
2021/07/12 08:18:22;;;;;;;1.00;1.00;;;22.50;71.20;;;;;;5070288;28;20703;-33
2021/07/12 08:20:48;;;;;;;1.40;1.30;;;22.50;71.90;;;;;;5071309;28;20025;-31
2021/07/12 08:23:14;;;;;;;4.80;1.40;;;22.50;72.20;;;;;;5063101;28;20086;-34
2021/07/12 08:25:43;;;;;;;2.67;1.00;;;22.60;72.00;;;;;;4717620;28;10000391;-25
2021/07/12 08:28:08;;;;;;;1.88;1.05;;;22.50;71.70;;;;;;5064640;28;20493;-36
2021/07/12 08:30:36;;;;;;;2.70;1.55;;;22.50;72.10;;;;;;5043267;28;20047;-32
2021/07/12 08:33:02;;;;;;;1.40;1.27;;;22.50;71.90;;;;;;5066525;28;20028;-28
2021/07/12 08:35:28;;;;;;;3.15;1.10;;;22.50;71.30;;;;;;5066138;28;20047;-30
2021/07/12 08:37:53;;;;;;;10.07;1.85;;;22.60;71.10;;;;;;5064848;28;20032;-33
2021/07/12 08:40:21;;;;;;;1.98;1.00;;;22.50;71.10;;;;;;5061483;28;20032;-31
2021/07/12 08:42:50;;;;;;;3.10;1.67;;;22.70;70.70;;;;;;5044549;28;20115;-31
2021/07/12 08:45:15;;;;;;;1.58;1.27;;;22.80;70.30;;;;;;5068080;28;20135;-28
2021/07/12 08:47:41;;;;;;;2.90;1.33;;;22.70;70.20;;;;;;5064985;28;20107;-34
2021/07/12 08:50:07;;;;;;;3.03;1.95;;;22.50;70.40;;;;;;5065721;28;20060;-31
2021/07/12 08:52:33;;;;;;;1.65;1.38;;;22.60;69.80;;;;;;5061351;28;20035;-29
2021/07/12 08:54:59;;;;;;;1.38;1.27;;;22.70;69.40;;;;;;5069543;28;20040;-31
2021/07/12 08:57:25;;;;;;;2.25;1.52;;;22.80;69.10;;;;;;5066772;28;20036;-33
2021/07/12 08:59:50;;;;;;;3.30;1.05;;;22.70;69.20;;;;;;5061900;28;20032;-30
2021/07/12 09:02:17;;;;;;;1.40;1.10;;;22.60;69.20;;;;;;5025058;28;20075;-32
2021/07/12 09:04:44;;;;;;;1.10;0.98;;;22.60;69.30;;;;;;5063428;28;20579;-34
2021/07/12 09:07:32;;;;;;;1.38;1.10;;;22.60;69.30;;;;;;5050222;28;20044;-35
2021/07/12 09:10:21;;;;;;;2.15;0.90;;;22.60;69.20;;;;;;5065882;28;20473;-31
2021/07/12 09:12:51;;;;;;;1.17;0.80;;;22.60;69.10;;;;;;5066079;28;20712;-34
2021/07/12 09:15:23;;;;;;;1.00;0.90;;;22.60;69.20;;;;;;5063686;28;20059;-38
2021/07/12 09:17:53;;;;;;;1.75;1.17;;;22.70;69.10;;;;;;5064100;28;20063;-29
2021/07/12 09:20:25;;;;;;;0.80;0.77;;;22.70;69.10;;;;;;5059361;28;20032;-33
2021/07/12 09:22:51;;;;;;;0.80;0.80;;;22.60;69.00;;;;;;5063429;28;20040;-37
2021/07/12 09:25:16;;;;;;;0.93;0.80;;;22.60;68.90;;;;;;5063230;28;20086;-31
2021/07/12 09:27:42;;;;;;;1.17;1.00;;;22.70;69.10;;;;;;5060601;28;20049;-32
2021/07/12 09:30:12;;;;;;;0.80;0.80;;;22.70;69.10;;;;;;5063301;28;20024;-29
2021/07/12 09:32:39;;;;;;;1.10;1.00;;;22.70;69.20;;;;;;5044556;28;20549;-29
2021/07/12 09:35:18;;;;;;;1.08;0.98;;;22.90;68.50;;;;;;5061128;28;20523;-34
2021/07/12 09:37:59;;;;;;;0.93;0.93;;;22.80;68.50;;;;;;5042288;28;20033;-32
2021/07/12 09:40:26;;;;;;;1.25;1.00;;;22.80;68.60;;;;;;5044278;28;20028;-34
2021/07/12 09:42:52;;;;;;;1.50;1.00;;;22.80;68.70;;;;;;5047678;28;20025;-35
2021/07/12 09:45:22;;;;;;;1.48;1.10;;;22.80;68.70;;;;;;5066713;28;20036;-37
2021/07/12 09:47:49;;;;;;;1.40;0.82;;;22.80;69.00;;;;;;5072403;28;20028;-33
2021/07/12 09:50:22;;;;;;;1.30;0.93;;;22.80;69.00;;;;;;5068231;28;20497;-36
2021/07/12 09:52:52;;;;;;;2.10;1.13;;;22.80;68.80;;;;;;5069060;28;20032;-34
2021/07/12 09:55:24;;;;;;;1.95;0.80;;;22.70;69.00;;;;;;5067000;28;20036;-30
2021/07/12 09:58:09;;;;;;;1.35;0.80;;;22.70;68.70;;;;;;5067078;28;20024;-32
2021/07/12 10:00:57;;;;;;;1.05;1.00;;;22.70;68.20;;;;;;5067260;28;20077;-31
2021/07/12 10:03:23;;;;;;;0.77;0.77;;;22.70;68.40;;;;;;5071102;28;20421;-33
2021/07/12 10:05:49;;;;;;;2.33;0.95;;;22.60;68.60;;;;;;5054769;28;20118;-28
2021/07/12 10:08:15;;;;;;;0.80;0.80;;;22.70;68.30;;;;;;5070036;28;20111;-31
2021/07/12 10:10:40;;;;;;;1.70;0.63;;;22.70;68.80;;;;;;5062277;28;20210;-34
2021/07/12 10:13:06;;;;;;;0.73;0.73;;;22.70;68.00;;;;;;5061890;28;20067;-35
2021/07/12 10:15:32;;;;;;;0.70;0.70;;;22.60;68.10;;;;;;4708319;28;10000307;-33
2021/07/12 10:17:59;;;;;;;0.98;0.90;;;22.60;68.90;;;;;;5063114;28;20023;-38
2021/07/12 10:20:25;;;;;;;1.10;1.00;;;22.70;68.80;;;;;;5058701;28;20059;-31
2021/07/12 10:22:50;;;;;;;1.00;1.00;;;22.70;69.20;;;;;;5040762;28;21298;-33
2021/07/12 10:25:17;;;;;;;1.15;0.90;;;22.70;69.60;;;;;;5060173;28;20071;-38
2021/07/12 10:27:53;;;;;;;1.90;1.20;;;22.70;69.20;;;;;;5060974;28;20604;-42
2021/07/12 10:30:26;;;;;;;0.85;0.80;;;22.90;68.80;;;;;;5058180;28;20056;-31
2021/07/12 10:32:59;;;;;;;0.90;0.90;;;22.80;68.20;;;;;;5059856;28;20393;-36
2021/07/12 10:35:48;;;;;;;1.15;0.80;;;22.80;68.50;;;;;;5059219;28;20048;-35
2021/07/12 10:38:15;;;;;;;0.60;0.60;;;22.80;68.40;;;;;;5062548;28;20028;-32
2021/07/12 10:40:54;;;;;;;1.52;0.77;;;22.80;68.50;;;;;;5059560;28;20103;-33
2021/07/12 10:43:41;;;;;;;1.35;0.88;;;22.80;68.80;;;;;;5061202;28;20101;-33
2021/07/12 10:46:23;;;;;;;2.09;0.99;;;22.90;68.60;;;;;;4980226;28;10001909;-30
2021/07/12 10:48:50;;;;;;;2.85;1.20;;;22.80;69.00;;;;;;5043729;28;20993;-32
2021/07/12 10:51:27;;;;;;;2.42;0.95;;;23.00;68.80;;;;;;5068762;28;20059;-32
2021/07/12 10:54:04;;;;;;;1.05;0.95;;;23.00;69.60;;;;;;5064969;28;20059;-27
2021/07/12 10:56:57;;;;;;;0.98;0.80;;;22.90;69.50;;;;;;5060606;28;20036;-31
2021/07/12 10:59:28;;;;;;;0.65;0.60;;;22.80;70.40;;;;;;5040111;28;20067;-32
2021/07/12 11:01:54;;;;;;;0.70;0.70;;;22.80;69.90;;;;;;5060040;28;20052;-33
2021/07/12 11:04:51;;;;;;;0.75;0.75;;;22.80;69.80;;;;;;5060850;28;20072;-30
2021/07/12 11:07:20;;;;;;;1.23;1.00;;;22.80;69.70;;;;;;5065499;28;20033;-34
2021/07/12 11:09:47;;;;;;;1.38;1.00;;;22.80;69.80;;;;;;5049415;28;20055;-32
2021/07/12 11:12:32;;;;;;;1.60;0.77;;;22.90;70.00;;;;;;5071313;28;20026;-32
2021/07/12 11:15:28;;;;;;;0.80;0.80;;;22.90;70.10;;;;;;5065845;28;20078;-34
2021/07/12 11:18:00;;;;;;;0.73;0.73;;;22.90;70.30;;;;;;5054098;28;20051;-35
2021/07/12 11:21:01;;;;;;;1.88;1.05;;;22.90;69.80;;;;;;5064934;28;20460;-30
2021/07/12 11:23:49;;;;;;;1.00;0.68;;;22.90;69.80;;;;;;5065840;28;20111;-36
2021/07/12 11:26:23;;;;;;;0.70;0.70;;;22.90;69.90;;;;;;5067332;28;20032;-34
2021/07/12 11:28:50;;;;;;;1.52;0.68;;;22.90;69.80;;;;;;5063541;28;20048;-35
2021/07/12 11:31:56;;;;;;;0.93;0.80;;;22.90;69.80;;;;;;5061226;28;20043;-31
2021/07/12 11:34:32;;;;;;;0.70;0.70;;;22.90;69.60;;;;;;5062338;28;20258;-30
2021/07/12 11:37:10;;;;;;;0.80;0.80;;;22.90;69.70;;;;;;5064663;28;20032;-33
2021/07/12 11:39:41;;;;;;;0.70;0.70;;;23.00;69.40;;;;;;5063880;28;20026;-30
2021/07/12 11:42:26;;;;;;;0.93;0.60;;;23.00;69.40;;;;;;5058810;28;20430;-29
2021/07/12 11:45:04;;;;;;;0.60;0.60;;;23.00;69.40;;;;;;5067994;28;20111;-33
2021/07/12 11:47:51;;;;;;;0.88;0.80;;;23.10;69.50;;;;;;5063209;28;20028;-32
2021/07/12 11:50:22;;;;;;;1.23;0.70;;;23.00;69.60;;;;;;5063172;28;20079;-32
2021/07/12 11:52:52;;;;;;;1.40;0.90;;;23.00;69.10;;;;;;5064559;28;20046;-35
2021/07/12 11:55:21;;;;;;;1.08;0.70;;;23.00;68.80;;;;;;5065888;28;20047;-28
2021/07/12 11:57:52;;;;;;;0.60;0.60;;;23.00;68.40;;;;;;5069925;28;20029;-33
2021/07/12 12:00:24;;;;;;;0.70;0.70;;;23.00;69.00;;;;;;5062958;28;20296;-26
2021/07/12 12:02:56;;;;;;;0.75;0.70;;;23.10;69.00;;;;;;5067665;28;20481;-28
2021/07/12 12:05:21;;;;;;;0.65;0.65;;;23.10;69.30;;;;;;5066081;28;20078;-35
2021/07/12 12:07:47;;;;;;;0.68;0.68;;;23.10;68.60;;;;;;5068051;28;20033;-36
2021/07/12 12:10:17;;;;;;;0.50;0.50;;;23.10;68.10;;;;;;5064196;28;20060;-31
2021/07/12 12:12:54;;;;;;;0.60;0.60;;;23.10;68.50;;;;;;5064117;28;20075;-32
2021/07/12 12:15:27;;;;;;;0.60;0.60;;;23.10;68.80;;;;;;5066670;28;20455;-30
2021/07/12 12:17:58;;;;;;;1.30;0.60;;;23.10;68.20;;;;;;5067793;28;20039;-28
2021/07/12 12:20:31;;;;;;;0.57;0.57;;;23.10;69.00;;;;;;5063925;28;20032;-31
2021/07/12 12:22:59;;;;;;;1.77;0.50;;;23.20;68.40;;;;;;5070047;28;20045;-36
2021/07/12 12:25:25;;;;;;;1.13;0.60;;;23.20;68.30;;;;;;5075157;28;20492;-34
2021/07/12 12:27:51;;;;;;;1.08;0.40;;;23.20;68.20;;;;;;5060302;28;20408;-31
2021/07/12 12:30:17;;;;;;;1.50;0.60;;;23.30;67.60;;;;;;5070661;28;20020;-35
2021/07/12 12:32:50;;;;;;;0.90;0.60;;;23.30;67.60;;;;;;5069382;28;20035;-30
2021/07/12 12:35:16;;;;;;;0.55;0.52;;;23.30;67.70;;;;;;5052037;28;20054;-28
2021/07/12 12:37:42;;;;;;;0.50;0.50;;;23.30;67.70;;;;;;5071708;28;20020;-28
2021/07/12 12:40:08;;;;;;;1.60;0.47;;;23.40;67.80;;;;;;5063932;28;20039;-28
2021/07/12 12:42:34;;;;;;;2.25;0.65;;;23.40;68.00;;;;;;5075444;28;20572;-31
2021/07/12 12:45:00;;;;;;;0.40;0.40;;;23.50;68.20;;;;;;5069723;28;20036;-37
2021/07/12 12:47:31;;;;;;;0.75;0.50;;;23.50;66.80;;;;;;5065593;28;20490;-32
2021/07/12 12:49:57;;;;;;;2.00;0.40;;;23.50;66.90;;;;;;5060625;28;20081;-29
2021/07/12 12:52:22;;;;;;;0.82;0.68;;;23.60;67.70;;;;;;5065661;28;20040;-34
2021/07/12 12:54:49;;;;;;;0.70;0.47;;;23.60;67.50;;;;;;5030069;28;20044;-34
2021/07/12 12:57:16;;;;;;;0.82;0.50;;;23.60;65.90;;;;;;5061525;28;20039;-31